createdAt,value
2023-04-15T00:00:12.122Z,11.15
2023-04-15T00:02:45.777Z,12.00
2023-04-15T00:05:15.022Z,13.57
2023-04-15T00:07:44.190Z,10.28
2023-04-15T00:10:13.106Z,11.83
2023-04-15T00:12:42.310Z,11.55
2023-04-15T00:15:19.017Z,10.03
2023-04-15T00:17:44.405Z,10.95
2023-04-15T00:20:13.686Z,12.10
2023-04-15T00:22:42.592Z,11.23
2023-04-15T00:25:11.587Z,10.90
2023-04-15T00:27:40.563Z,10.20
2023-04-15T00:30:09.853Z,10.48
2023-04-15T00:32:38.801Z,10.50
2023-04-15T00:35:11.123Z,11.45
2023-04-15T00:37:40.121Z,10.70
2023-04-15T00:40:10.356Z,10.80
2023-04-15T00:42:39.470Z,11.12
2023-04-15T00:45:08.429Z,11.85
2023-04-15T00:47:37.775Z,11.30
2023-04-15T00:50:07.034Z,10.87
2023-04-15T00:52:35.926Z,10.77
2023-04-15T00:55:05.342Z,10.98
2023-04-15T00:57:34.321Z,12.60
2023-04-15T01:00:03.322Z,12.07
2023-04-15T01:02:32.657Z,11.50
2023-04-15T01:05:05.398Z,10.75
2023-04-15T01:07:34.526Z,11.68
2023-04-15T01:10:03.483Z,12.43
2023-04-15T01:12:32.535Z,11.28
2023-04-15T01:15:01.720Z,11.05
2023-04-15T01:17:31.279Z,11.37
2023-04-15T01:20:00.590Z,11.15
2023-04-15T01:22:31.321Z,11.05
2023-04-15T01:25:00.942Z,10.68
2023-04-15T01:27:31.642Z,11.68
2023-04-15T01:30:01.061Z,11.80
2023-04-15T01:32:31.819Z,14.65
2023-04-15T01:35:01.307Z,14.90
2023-04-15T01:37:30.599Z,16.32
2023-04-15T01:40:00.275Z,14.83
2023-04-15T01:42:30.005Z,15.15
2023-04-15T01:44:59.124Z,14.23
2023-04-15T01:47:28.537Z,14.03
2023-04-15T01:49:57.625Z,14.28
2023-04-15T01:52:26.511Z,15.17
2023-04-15T01:54:55.813Z,15.93
2023-04-15T01:57:25.120Z,16.05
2023-04-15T01:59:54.335Z,15.18
2023-04-15T02:02:23.286Z,15.37
2023-04-15T02:04:55.090Z,17.30
2023-04-15T02:07:22.534Z,17.70
2023-04-15T02:09:51.715Z,18.70
2023-04-15T02:12:21.020Z,18.02
2023-04-15T02:14:52.624Z,18.02
2023-04-15T02:17:21.272Z,17.65
2023-04-15T02:19:50.352Z,18.62
2023-04-15T02:22:19.564Z,19.60
2023-04-15T02:24:48.563Z,19.23
2023-04-15T02:27:17.643Z,19.80
2023-04-15T02:29:46.635Z,19.73
2023-04-15T02:32:15.834Z,19.85
2023-04-15T02:34:45.141Z,22.05
2023-04-15T02:37:14.130Z,21.23
2023-04-15T02:39:43.234Z,22.15
2023-04-15T02:42:12.215Z,21.90
2023-04-15T02:44:41.738Z,23.42
2023-04-15T02:47:11.029Z,23.83
2023-04-15T02:49:40.223Z,23.90
2023-04-15T02:52:09.217Z,25.47
2023-04-15T02:54:39.748Z,26.42
2023-04-15T02:57:08.961Z,26.53
2023-04-15T02:59:37.840Z,26.27
2023-04-15T03:02:07.193Z,27.35
2023-04-15T03:04:36.646Z,28.35
2023-04-15T03:07:08.540Z,30.25
2023-04-15T03:09:38.549Z,29.18
2023-04-15T03:12:09.151Z,30.40
2023-04-15T03:14:39.882Z,31.77
2023-04-15T03:17:09.175Z,32.33
2023-04-15T03:19:39.710Z,30.65
2023-04-15T03:22:09.940Z,31.65
2023-04-15T03:24:39.047Z,31.87
2023-04-15T03:27:07.910Z,33.17
2023-04-15T03:29:36.912Z,32.78
2023-04-15T03:32:06.013Z,33.98
2023-04-15T03:34:35.622Z,34.08
2023-04-15T03:37:06.350Z,34.95
2023-04-15T03:39:35.643Z,35.00
2023-04-15T03:42:04.651Z,35.48
2023-04-15T03:44:33.540Z,34.67
2023-04-15T03:47:02.647Z,38.50
2023-04-15T03:49:32.052Z,38.55
2023-04-15T03:52:01.022Z,38.13
2023-04-15T03:54:29.927Z,38.63
2023-04-15T03:56:59.126Z,37.67
2023-04-15T03:59:28.103Z,39.83
2023-04-15T04:01:57.432Z,38.40
2023-04-15T04:04:26.908Z,40.73
2023-04-15T04:06:56.107Z,39.05
2023-04-15T04:09:25.009Z,38.50
2023-04-15T04:11:54.206Z,39.30
2023-04-15T04:14:23.401Z,42.23
2023-04-15T04:16:52.516Z,40.43
2023-04-15T04:19:21.386Z,42.03
2023-04-15T04:21:50.685Z,41.40
2023-04-15T04:24:19.576Z,42.50
2023-04-15T04:26:48.676Z,40.83
2023-04-15T04:29:17.770Z,43.00
2023-04-15T04:31:46.752Z,45.37
2023-04-15T04:34:15.653Z,44.30
2023-04-15T04:36:44.973Z,43.40
2023-04-15T04:39:14.052Z,45.10
2023-04-15T04:41:42.931Z,43.60
2023-04-15T04:44:11.802Z,41.85
2023-04-15T04:46:41.027Z,45.23
2023-04-15T04:49:10.039Z,45.43
2023-04-15T04:51:38.908Z,47.35
2023-04-15T04:54:08.016Z,48.23
2023-04-15T04:56:37.208Z,47.70
2023-04-15T04:59:06.094Z,50.57
2023-04-15T05:01:35.438Z,49.38
2023-04-15T05:04:04.806Z,46.55
2023-04-15T05:06:33.989Z,48.28
2023-04-15T05:09:03.300Z,48.83
2023-04-15T05:11:32.604Z,48.65
2023-04-15T05:14:01.809Z,52.20
2023-04-15T05:16:30.690Z,50.38
2023-04-15T05:19:00.074Z,49.67
2023-04-15T05:21:29.185Z,50.33
2023-04-15T05:23:58.154Z,49.50
2023-04-15T05:26:27.638Z,51.17
2023-04-15T05:28:56.701Z,52.35
2023-04-15T05:31:25.585Z,51.83
2023-04-15T05:33:54.563Z,53.02
2023-04-15T05:36:23.763Z,51.40
2023-04-15T05:38:53.072Z,52.93
2023-04-15T05:41:22.372Z,52.20
2023-04-15T05:43:51.753Z,51.42
2023-04-15T05:46:20.687Z,50.28
2023-04-15T05:48:49.522Z,52.62
2023-04-15T05:51:18.653Z,51.77
2023-04-15T05:53:47.845Z,53.00
2023-04-15T06:18:05.419Z,66.02
2023-04-15T07:05:47.618Z,70.75
2023-04-15T07:08:16.929Z,66.90
2023-04-15T07:10:46.140Z,69.25
2023-04-15T07:13:15.109Z,70.30
2023-04-15T07:15:44.101Z,67.65
2023-04-15T07:18:13.312Z,67.90
2023-04-15T07:20:42.302Z,66.67
2023-04-15T07:23:11.187Z,67.67
2023-04-15T07:25:40.376Z,67.90
2023-04-15T07:28:09.279Z,68.47
2023-04-15T07:30:38.270Z,69.50
2023-04-15T07:33:07.398Z,66.83
2023-04-15T07:35:36.879Z,67.25
2023-04-15T07:38:05.759Z,66.07
2023-04-15T07:40:34.962Z,66.37
2023-04-15T07:43:04.276Z,66.47
2023-04-15T07:45:33.355Z,67.82
2023-04-15T07:48:02.622Z,68.57
2023-04-15T07:50:31.851Z,64.65
2023-04-15T07:53:00.858Z,67.60
2023-04-15T07:55:29.742Z,65.10
2023-04-15T07:57:58.841Z,65.80
2023-04-15T08:00:28.057Z,64.15
2023-04-15T08:02:57.415Z,65.52
2023-04-15T08:05:26.643Z,64.75
2023-04-15T08:07:55.630Z,65.85
2023-04-15T08:10:24.518Z,66.13
2023-04-15T08:12:53.827Z,68.17
2023-04-15T08:15:22.721Z,65.15
2023-04-15T08:17:51.776Z,65.75
2023-04-15T08:20:20.905Z,65.30
2023-04-15T08:22:50.205Z,67.45
2023-04-15T08:25:19.304Z,64.13
2023-04-15T08:27:48.188Z,64.97
2023-04-15T08:30:17.184Z,66.77
2023-04-15T08:32:46.240Z,63.67
2023-04-15T08:35:15.579Z,63.52
2023-04-15T08:37:44.708Z,64.03
2023-04-15T08:40:13.680Z,66.67
2023-04-15T08:42:43.656Z,64.07
2023-04-15T08:45:13.310Z,62.83
2023-04-15T08:47:42.540Z,63.25
2023-04-15T08:50:11.800Z,63.33
2023-04-15T08:52:40.783Z,64.45
2023-04-15T08:55:09.769Z,61.23
2023-04-15T08:57:38.777Z,63.37
2023-04-15T09:00:07.875Z,62.53
2023-04-15T09:02:37.019Z,64.77
2023-04-15T09:05:06.406Z,63.95
2023-04-15T09:07:35.360Z,63.15
2023-04-15T09:10:04.329Z,63.30
2023-04-15T09:12:33.560Z,61.20
2023-04-15T09:15:03.084Z,61.95
2023-04-15T09:17:32.381Z,61.20
2023-04-15T09:20:01.480Z,59.00
2023-04-15T09:22:30.687Z,61.70
2023-04-15T09:24:59.655Z,59.90
2023-04-15T09:27:28.647Z,61.10
2023-04-15T09:29:57.835Z,59.65
2023-04-15T09:32:28.882Z,58.55
2023-04-15T09:35:00.159Z,59.45
2023-04-15T09:37:32.470Z,58.80
2023-04-15T09:39:59.752Z,59.05
2023-04-15T09:42:28.747Z,55.88
2023-04-15T09:44:57.706Z,56.20
2023-04-15T09:47:29.648Z,56.70
2023-04-15T09:49:59.169Z,56.53
2023-04-15T09:52:28.267Z,54.55
2023-04-15T09:54:57.183Z,54.73
2023-04-15T09:57:26.196Z,55.00
2023-04-15T09:59:55.409Z,54.63
2023-04-15T10:02:24.561Z,55.65
2023-04-15T10:04:53.986Z,53.35
2023-04-15T10:07:22.973Z,52.95
2023-04-15T10:09:51.869Z,52.63
2023-04-15T10:12:20.975Z,52.17
2023-04-15T10:14:50.268Z,52.70
2023-04-15T10:17:19.364Z,51.63
2023-04-15T10:19:48.261Z,50.13
2023-04-15T10:22:17.859Z,53.13
2023-04-15T10:24:46.746Z,53.23
2023-04-15T10:27:16.156Z,51.30
2023-04-15T10:29:45.354Z,50.67
2023-04-15T10:32:14.441Z,52.50
2023-04-15T10:34:43.440Z,52.23
2023-04-15T10:37:12.626Z,53.03
2023-04-15T10:39:41.827Z,53.38
2023-04-15T10:42:10.800Z,54.03
2023-04-15T10:44:39.924Z,52.97
2023-04-15T10:47:08.992Z,54.42
2023-04-15T10:49:38.129Z,52.15
2023-04-15T10:52:07.327Z,53.33
2023-04-15T10:54:36.615Z,52.67
2023-04-15T10:57:07.271Z,54.05
2023-04-15T10:59:36.176Z,53.25
2023-04-15T11:02:05.597Z,53.70
2023-04-15T11:04:34.985Z,52.33
2023-04-15T11:07:03.928Z,50.45
2023-04-15T11:09:32.918Z,51.63
2023-04-15T11:12:02.027Z,52.20
2023-04-15T11:14:31.117Z,51.42
2023-04-15T11:17:01.412Z,51.65
2023-04-15T11:19:30.327Z,52.50
2023-04-15T11:21:59.426Z,53.93
2023-04-15T11:24:28.398Z,52.27
2023-04-15T11:26:57.728Z,52.55
2023-04-15T11:29:26.937Z,53.78
2023-04-15T11:31:56.092Z,52.30
2023-04-15T11:34:25.316Z,53.02
2023-04-15T11:36:54.514Z,51.88
2023-04-15T11:39:23.702Z,51.33
2023-04-15T11:41:52.810Z,51.02
2023-04-15T11:44:22.134Z,52.03
2023-04-15T11:46:51.314Z,52.75
2023-04-15T11:49:20.521Z,51.73
2023-04-15T11:51:49.808Z,51.83
2023-04-15T11:54:19.116Z,52.38
2023-04-15T11:56:48.176Z,53.38
2023-04-15T11:59:17.500Z,54.08
2023-04-15T12:01:46.569Z,50.27
2023-04-15T12:04:15.913Z,51.40
2023-04-15T12:06:45.097Z,51.45
2023-04-15T12:09:14.087Z,54.38
2023-04-15T12:11:43.088Z,55.90
2023-04-15T12:14:12.175Z,54.90
2023-04-15T12:16:48.779Z,56.48
2023-04-15T12:19:11.631Z,55.67
2023-04-15T12:21:40.696Z,56.15
2023-04-15T12:24:09.885Z,53.90
2023-04-15T12:26:39.098Z,55.12
2023-04-15T12:29:08.182Z,53.33
2023-04-15T12:31:37.552Z,54.15
2023-04-15T12:34:07.306Z,55.98
2023-04-15T12:36:36.696Z,56.13
2023-04-15T12:39:05.897Z,57.53
2023-04-15T12:41:35.136Z,57.35
2023-04-15T12:44:04.643Z,55.05
2023-04-15T12:49:03.410Z,55.47
2023-04-15T12:51:32.810Z,56.45
2023-04-15T12:54:01.840Z,56.50
2023-04-15T12:56:31.423Z,54.83
2023-04-15T12:59:11.408Z,54.67
2023-04-15T13:01:36.924Z,54.18
2023-04-15T13:04:06.919Z,55.00
2023-04-15T13:09:05.957Z,56.55
2023-04-15T13:11:36.877Z,55.38
2023-04-15T13:14:06.074Z,56.55
2023-04-15T13:16:35.380Z,56.88
2023-04-15T13:19:06.026Z,57.10
2023-04-15T13:21:35.795Z,57.55
2023-04-15T13:24:05.563Z,58.48
2023-04-15T13:26:36.374Z,57.23
2023-04-15T13:29:06.054Z,55.83
2023-04-15T13:31:35.347Z,56.18
2023-04-15T13:34:04.714Z,58.23
2023-04-15T13:39:03.651Z,58.25
2023-04-15T13:41:36.918Z,59.18
2023-04-15T13:44:05.987Z,51.77
2023-04-15T13:46:35.555Z,52.38
2023-04-15T13:49:04.980Z,49.50
2023-04-15T13:51:34.349Z,44.83
2023-04-15T13:54:03.836Z,40.12
2023-04-15T13:56:37.876Z,38.33
2023-04-15T13:59:07.280Z,36.45
2023-04-15T14:01:36.499Z,35.25
2023-04-15T14:04:06.181Z,32.67
2023-04-15T14:06:35.693Z,32.63
2023-04-15T14:09:05.558Z,30.40
2023-04-15T14:11:35.113Z,30.05
2023-04-15T14:14:04.553Z,28.98
2023-04-15T14:16:35.385Z,28.95
2023-04-15T14:19:04.981Z,28.27
2023-04-15T14:21:34.622Z,28.62
2023-04-15T14:24:04.064Z,27.80
2023-04-15T14:26:33.492Z,27.33
2023-04-15T14:29:03.044Z,27.02
2023-04-15T14:31:32.255Z,27.87
2023-04-15T14:34:01.378Z,28.05
2023-04-15T14:36:30.569Z,27.17
2023-04-15T14:38:59.553Z,28.27
2023-04-15T14:41:29.261Z,28.63
2023-04-15T14:43:58.472Z,29.90
2023-04-15T14:46:27.703Z,29.23
2023-04-15T14:48:56.944Z,27.50
2023-04-15T14:51:26.169Z,28.77
2023-04-15T14:53:55.476Z,28.15
2023-04-15T14:56:24.458Z,26.50
2023-04-15T14:58:53.552Z,25.92
2023-04-15T15:01:23.052Z,27.40
2023-04-15T15:03:52.405Z,27.20
2023-04-15T15:06:21.354Z,27.63
2023-04-15T15:08:50.671Z,26.55
2023-04-15T15:11:20.091Z,26.23
2023-04-15T15:13:49.571Z,26.57
2023-04-15T15:16:18.724Z,23.65
2023-04-15T15:18:47.840Z,26.12
2023-04-15T15:21:17.162Z,26.55
2023-04-15T15:23:46.461Z,27.13
2023-04-15T15:26:15.668Z,26.70
2023-04-15T15:28:45.072Z,27.15
2023-04-15T15:31:14.527Z,27.27
2023-04-15T15:33:43.661Z,28.97
2023-04-15T15:36:13.071Z,28.57
2023-04-15T15:38:42.372Z,28.43
2023-04-15T15:41:11.597Z,28.70
2023-04-15T15:43:41.074Z,29.60
2023-04-15T15:46:10.347Z,29.82
2023-04-15T15:48:39.554Z,30.57
2023-04-15T15:51:27.714Z,31.37
2023-04-15T15:53:57.012Z,31.60
2023-04-15T15:56:26.110Z,30.12
2023-04-15T15:58:54.993Z,32.25
2023-04-15T16:01:23.976Z,32.38
2023-04-15T16:03:53.434Z,33.13
2023-04-15T16:06:22.899Z,31.82
2023-04-15T16:08:51.784Z,33.42
2023-04-15T16:11:20.782Z,32.60
2023-04-15T16:13:49.774Z,33.55
2023-04-15T16:16:18.794Z,34.60
2023-04-15T16:18:48.278Z,33.02
2023-04-15T16:21:17.476Z,32.60
2023-04-15T16:23:46.697Z,33.73
2023-04-15T16:26:15.759Z,33.00
2023-04-15T16:28:44.970Z,33.38
2023-04-15T16:31:13.848Z,35.00
2023-04-15T16:33:43.055Z,32.53
2023-04-15T16:36:12.356Z,31.93
2023-04-15T16:38:41.245Z,32.85
2023-04-15T16:41:10.128Z,33.13
2023-04-15T16:43:39.134Z,33.88
2023-04-15T16:46:08.376Z,32.50
2023-04-15T16:48:37.316Z,32.35
2023-04-15T16:51:06.974Z,32.75
2023-04-15T16:53:36.022Z,33.43
2023-04-15T16:56:05.016Z,31.42
2023-04-15T16:58:34.240Z,32.55
2023-04-15T17:01:03.353Z,33.40
2023-04-15T17:03:32.560Z,31.93
2023-04-15T17:06:02.114Z,32.48
2023-04-15T17:08:31.318Z,30.95
2023-04-15T17:11:00.417Z,29.85
2023-04-15T17:13:29.397Z,30.02
2023-04-15T17:15:58.330Z,31.02
2023-04-15T17:18:27.595Z,29.72
2023-04-15T17:20:56.688Z,29.85
2023-04-15T17:23:25.890Z,31.63
2023-04-15T17:25:54.769Z,29.57
2023-04-15T17:28:23.878Z,31.05
2023-04-15T17:30:52.804Z,32.28
2023-04-15T17:33:55.370Z,29.32
2023-04-15T17:38:21.075Z,30.92
2023-04-15T17:40:50.065Z,31.42
2023-04-15T17:43:19.071Z,30.82
2023-04-15T17:45:48.160Z,31.57
2023-04-15T17:48:17.154Z,31.87
2023-04-15T17:50:46.734Z,31.80
2023-04-15T17:53:15.649Z,32.30
2023-04-15T17:55:44.743Z,33.73
2023-04-15T17:58:13.754Z,34.23
2023-04-15T18:00:42.948Z,35.13
2023-04-15T18:03:12.095Z,33.85
2023-04-15T18:05:42.648Z,35.45
2023-04-15T18:10:40.438Z,35.50
2023-04-15T18:13:09.750Z,36.42
2023-04-15T18:15:39.050Z,36.98
2023-04-15T18:18:08.036Z,38.53
2023-04-15T18:20:37.029Z,37.60
2023-04-15T18:23:06.132Z,37.40
2023-04-15T18:25:35.329Z,38.13
2023-04-15T18:28:04.624Z,38.17
2023-04-15T18:30:33.513Z,38.78
2023-04-15T18:33:02.655Z,36.30
2023-04-15T18:38:18.417Z,34.85
2023-04-15T18:40:47.413Z,35.70
2023-04-15T18:43:16.816Z,35.30
2023-04-15T18:45:45.949Z,36.00
2023-04-15T18:48:14.903Z,34.33
2023-04-15T18:50:44.005Z,37.10
2023-04-15T18:53:13.002Z,35.17
2023-04-15T18:55:42.091Z,35.33
2023-04-15T18:58:11.416Z,35.48
2023-04-15T19:00:40.713Z,35.33
2023-04-15T19:03:10.375Z,34.77
2023-04-15T19:05:39.285Z,35.87
2023-04-15T19:08:08.292Z,36.15
2023-04-15T19:10:37.290Z,33.80
2023-04-15T19:13:06.385Z,32.67
2023-04-15T19:15:35.577Z,34.48
2023-04-15T19:18:04.606Z,33.90
2023-04-15T19:20:37.177Z,34.83
2023-04-15T19:23:04.393Z,34.48
2023-04-15T19:25:33.507Z,34.27
2023-04-15T19:28:02.374Z,35.05
2023-04-15T19:30:31.393Z,36.48
2023-04-15T19:33:00.585Z,33.05
2023-04-15T19:35:29.463Z,34.35
2023-04-15T19:37:58.675Z,33.20
2023-04-15T19:40:27.668Z,32.13
2023-04-15T19:43:00.036Z,33.75
2023-04-15T19:45:28.923Z,32.78
2023-04-15T19:47:58.043Z,34.13
2023-04-15T19:50:27.215Z,33.20
2023-04-15T19:52:56.205Z,33.15
2023-04-15T19:55:25.091Z,32.98
2023-04-15T19:57:54.306Z,35.13
2023-04-15T20:00:23.188Z,33.98
2023-04-15T20:02:52.263Z,34.40
2023-04-15T20:05:21.560Z,36.98
2023-04-15T20:07:50.598Z,34.30
2023-04-15T20:10:19.547Z,36.30
2023-04-15T20:12:52.693Z,36.60
2023-04-15T20:15:19.206Z,34.65
2023-04-15T20:17:48.216Z,32.53
2023-04-15T20:20:17.277Z,33.50
2023-04-15T20:22:46.392Z,34.85
2023-04-15T20:25:15.477Z,34.38
2023-04-15T20:27:44.370Z,33.53
2023-04-15T20:30:13.460Z,33.18
2023-04-15T20:32:42.687Z,32.45
2023-04-15T20:35:11.958Z,32.70
2023-04-15T20:37:41.365Z,31.23
2023-04-15T20:40:10.351Z,31.77
2023-04-15T20:42:39.237Z,31.97
2023-04-15T20:45:08.240Z,29.07
2023-04-15T20:47:37.266Z,30.80
2023-04-15T20:50:06.222Z,29.05
2023-04-15T20:52:35.427Z,29.40
2023-04-15T20:55:04.626Z,30.72
2023-04-15T20:57:33.512Z,29.05
2023-04-15T21:00:02.606Z,28.70
2023-04-15T21:02:31.837Z,30.00
2023-04-15T21:05:01.122Z,30.25
2023-04-15T21:07:30.118Z,29.55
2023-04-15T21:09:59.718Z,30.25
2023-04-15T21:12:29.009Z,30.27
2023-04-15T21:14:58.204Z,28.90
2023-04-15T21:17:27.527Z,27.42
2023-04-15T21:19:56.914Z,27.20
2023-04-15T21:22:26.105Z,28.03
2023-04-15T21:24:55.338Z,27.42
2023-04-15T21:27:27.790Z,27.73
2023-04-15T21:29:57.184Z,28.77
2023-04-15T21:32:26.436Z,26.93
2023-04-15T21:34:58.574Z,25.57
2023-04-15T21:37:27.746Z,25.55
2023-04-15T21:39:56.958Z,26.17
2023-04-15T21:42:26.706Z,26.27
2023-04-15T21:45:00.802Z,25.48
2023-04-15T21:47:29.995Z,27.17
2023-04-15T21:49:59.376Z,27.90
2023-04-15T21:52:28.387Z,26.73
2023-04-15T21:54:57.354Z,26.25
2023-04-15T21:57:26.652Z,25.97
2023-04-15T21:59:55.856Z,24.50
2023-04-15T22:02:25.075Z,25.68
2023-04-15T22:04:54.352Z,25.77
2023-04-15T22:07:23.702Z,24.65
2023-04-15T22:09:52.954Z,25.27
2023-04-15T22:12:22.056Z,26.37
2023-04-15T22:14:51.662Z,26.80
2023-04-15T22:17:20.860Z,26.50
2023-04-15T22:19:49.747Z,25.35
2023-04-15T22:22:19.055Z,24.45
2023-04-15T22:27:18.364Z,24.20
2023-04-15T22:29:47.562Z,26.40
2023-04-15T22:32:16.763Z,23.15
2023-04-15T22:34:46.068Z,22.90
2023-04-15T22:37:15.358Z,23.65
2023-04-15T22:39:44.671Z,25.05
2023-04-15T22:42:14.172Z,23.75
2023-04-15T22:44:43.674Z,24.30
2023-04-15T22:47:13.071Z,23.98
2023-04-15T22:49:42.483Z,24.07
2023-04-15T22:52:17.182Z,24.77
2023-04-15T22:54:42.197Z,24.20
2023-04-15T22:57:11.407Z,24.80
2023-04-15T22:59:40.706Z,24.37
2023-04-15T23:02:09.908Z,23.87
2023-04-15T23:04:39.159Z,24.63
2023-04-15T23:07:08.619Z,22.13
2023-04-15T23:09:37.696Z,23.02
2023-04-15T23:12:07.112Z,23.22
2023-04-15T23:14:36.516Z,22.03
2023-04-15T23:17:05.698Z,23.33
2023-04-15T23:19:35.421Z,22.20
2023-04-15T23:22:04.823Z,22.50
2023-04-15T23:24:33.809Z,22.47
2023-04-15T23:27:02.913Z,21.10
2023-04-15T23:29:32.209Z,20.12
2023-04-15T23:32:01.490Z,20.15
2023-04-15T23:34:30.906Z,19.12
2023-04-15T23:37:00.341Z,20.12
2023-04-15T23:39:29.720Z,18.87
2023-04-15T23:41:59.015Z,18.10
2023-04-15T23:44:28.198Z,19.20
2023-04-15T23:46:57.554Z,18.57
2023-04-15T23:49:27.020Z,17.92
2023-04-15T23:51:56.010Z,17.30
2023-04-15T23:54:25.219Z,19.17
2023-04-15T23:56:54.517Z,17.02
2023-04-15T23:59:23.720Z,16.37
